Time;durP1;ratioP1;P1;durP2;ratioP2;P2;SDS_P1;SDS_P2;PMS_P1;PMS_P2;Temp;Humidity;BMP_temperature;BMP_pressure;BME280_temperature;BME280_humidity;BME280_pressure;Samples;Min_cycle;Max_cycle;Signal;HPM_P1;HPM_P2
2022/01/23 00:07:17;;;;;;;17.60;11.23;;;6.80;98.30;;;;;;20837257;28;20286;-75
2022/01/23 00:17:20;;;;;;;16.03;10.33;;;6.80;98.60;;;;;;20836532;28;20211;-72
2022/01/23 00:37:43;;;;;;;14.67;10.13;;;6.60;98.50;;;;;;20914958;28;20207;-74
2022/01/23 00:47:45;;;;;;;15.93;10.63;;;6.70;98.60;;;;;;20921517;28;20245;-64
2022/01/23 00:57:46;;;;;;;19.80;11.63;;;6.60;98.90;;;;;;20916190;28;20260;-65
2022/01/23 01:07:48;;;;;;;15.33;10.23;;;6.60;98.70;;;;;;20914262;28;20233;-62
2022/01/23 01:38:12;;;;;;;17.13;11.57;;;6.50;98.50;;;;;;20913055;28;20559;-64
2022/01/23 01:48:18;;;;;;;17.07;11.30;;;6.50;99.00;;;;;;20912335;28;20246;-67
2022/01/23 02:08:40;;;;;;;16.10;10.67;;;6.50;99.20;;;;;;20911590;28;20291;-62
2022/01/23 03:00:00;;;;;;;16.60;10.67;;;6.50;98.80;;;;;;20842833;28;20210;-60
2022/01/23 03:10:05;;;;;;;18.27;10.07;;;6.60;98.50;;;;;;20841666;28;20293;-61
2022/01/23 03:33:39;;;;;;;14.63;8.43;;;6.60;98.00;;;;;;20984413;28;21119;-62
2022/01/23 03:43:41;;;;;;;15.23;8.67;;;6.50;97.80;;;;;;20989013;28;20207;-61
2022/01/23 03:53:43;;;;;;;11.17;7.00;;;6.50;98.10;;;;;;20981135;28;20210;-61
2022/01/23 04:03:45;;;;;;;12.40;8.50;;;6.50;97.80;;;;;;20982090;28;20212;-75
2022/01/23 04:14:02;;;;;;;14.93;8.70;;;6.50;97.70;;;;;;20981646;28;20205;-61
2022/01/23 05:05:14;;;;;;;14.03;8.77;;;6.50;97.60;;;;;;20839981;28;20234;-72
2022/01/23 05:15:16;;;;;;;13.57;8.60;;;6.40;97.60;;;;;;20842897;28;20231;-70
2022/01/23 05:25:28;;;;;;;14.03;8.53;;;6.30;97.70;;;;;;20839271;28;20266;-71
2022/01/23 05:35:31;;;;;;;13.83;7.80;;;6.30;97.90;;;;;;20837823;28;20206;-76
2022/01/23 05:45:34;;;;;;;11.20;7.53;;;6.40;97.70;;;;;;20837010;28;20285;-76
2022/01/23 05:55:36;;;;;;;13.33;7.70;;;6.40;97.80;;;;;;20834927;28;20267;-76
2022/01/23 06:05:38;;;;;;;12.87;8.00;;;6.40;97.60;;;;;;20835165;28;20289;-61
2022/01/23 06:15:39;;;;;;;11.97;6.77;;;6.40;97.50;;;;;;20834798;28;20204;-62
2022/01/23 06:25:43;;;;;;;11.47;7.60;;;6.50;97.30;;;;;;20833649;28;20243;-65
2022/01/23 06:35:45;;;;;;;9.73;6.80;;;6.50;97.50;;;;;;20830161;28;20205;-74
2022/01/23 06:45:47;;;;;;;10.83;6.73;;;6.60;97.20;;;;;;20832260;28;20280;-77
2022/01/23 06:55:48;;;;;;;10.30;6.57;;;6.50;97.10;;;;;;20831641;28;20569;-76
2022/01/23 07:05:50;;;;;;;10.03;6.53;;;6.50;97.30;;;;;;20830653;28;20239;-74
2022/01/23 07:15:52;;;;;;;9.53;6.50;;;6.50;96.90;;;;;;20831001;28;20205;-61
2022/01/23 07:25:54;;;;;;;9.23;6.03;;;6.50;96.80;;;;;;20829775;28;20590;-65
2022/01/23 07:35:55;;;;;;;8.80;5.97;;;6.40;97.10;;;;;;20829665;28;20210;-62
2022/01/23 07:45:57;;;;;;;8.77;5.57;;;6.60;97.10;;;;;;20829255;28;20288;-63
2022/01/23 07:55:59;;;;;;;6.13;4.30;;;6.50;96.60;;;;;;20829083;28;20203;-60
2022/01/23 08:06:01;;;;;;;8.70;4.63;;;6.60;96.80;;;;;;20832114;28;20356;-61
2022/01/23 08:16:03;;;;;;;11.63;5.90;;;6.60;96.80;;;;;;20836767;28;20209;-60
2022/01/23 08:26:06;;;;;;;11.63;6.67;;;6.70;96.80;;;;;;20842532;28;20242;-65
2022/01/23 08:36:08;;;;;;;11.60;6.50;;;6.70;96.80;;;;;;20883876;28;20207;-74
2022/01/23 08:46:10;;;;;;;8.40;5.97;;;6.70;96.70;;;;;;20904577;28;20630;-67
2022/01/23 08:56:11;;;;;;;10.67;6.43;;;6.70;97.10;;;;;;20877741;28;20822;-70
2022/01/23 09:06:13;;;;;;;12.40;6.57;;;6.90;96.90;;;;;;20839541;28;20831;-61
2022/01/23 09:16:16;;;;;;;10.77;6.97;;;7.10;96.70;;;;;;20838803;28;20670;-61
2022/01/23 09:26:20;;;;;;;12.50;6.90;;;7.10;96.90;;;;;;20838092;28;20339;-64
2022/01/23 09:36:22;;;;;;;9.40;7.30;;;7.20;96.60;;;;;;20912948;28;20207;-65
2022/01/23 09:46:24;;;;;;;9.70;6.93;;;7.30;96.90;;;;;;20919150;28;20237;-66
2022/01/23 09:56:29;;;;;;;9.33;6.00;;;7.50;96.30;;;;;;20922578;28;20206;-60
2022/01/23 10:06:31;;;;;;;9.60;6.10;;;7.60;96.00;;;;;;20916871;28;20751;-62
2022/01/23 10:16:34;;;;;;;7.10;4.30;;;7.60;95.10;;;;;;20916396;28;20233;-69
2022/01/23 10:26:53;;;;;;;8.27;4.50;;;7.60;94.90;;;;;;20914100;28;20777;-61
2022/01/23 10:36:54;;;;;;;6.23;4.20;;;7.70;94.70;;;;;;20919168;28;20203;-61
2022/01/23 10:57:44;;;;;;;6.60;4.63;;;7.70;94.30;;;;;;20913904;28;20215;-63
2022/01/23 11:07:48;;;;;;;5.43;3.87;;;7.90;94.20;;;;;;20911078;28;20234;-62
2022/01/23 11:17:51;;;;;;;4.73;3.60;;;8.20;93.70;;;;;;20912471;28;20678;-62
2022/01/23 11:28:02;;;;;;;4.70;3.40;;;8.20;93.30;;;;;;20912186;28;20286;-67
2022/01/23 11:38:10;;;;;;;3.20;2.53;;;8.20;92.60;;;;;;20911358;28;20204;-61
2022/01/23 11:58:36;;;;;;;2.53;2.03;;;8.40;91.50;;;;;;20927912;28;20252;-62
2022/01/23 12:08:38;;;;;;;1.40;1.30;;;8.70;91.10;;;;;;20923262;28;20642;-61
2022/01/23 12:18:40;;;;;;;1.10;1.00;;;8.70;90.10;;;;;;20924586;28;20676;-69
2022/01/23 12:28:45;;;;;;;1.30;1.20;;;8.60;89.10;;;;;;20847817;28;20792;-62
2022/01/23 12:39:11;;;;;;;2.33;1.50;;;8.50;86.90;;;;;;20859629;28;20663;-70
2022/01/23 12:49:16;;;;;;;2.17;1.77;;;8.50;86.30;;;;;;20846678;28;20236;-62
2022/01/23 12:59:26;;;;;;;2.73;1.20;;;8.40;85.50;;;;;;20894150;28;20253;-63
2022/01/23 13:09:42;;;;;;;1.60;1.40;;;8.40;85.10;;;;;;20920482;28;20239;-62
2022/01/23 13:26:26;;;;;;;3.07;1.20;;;8.30;83.70;;;;;;20919834;28;20208;-62
2022/01/23 13:30:29;;;;;;;2.03;1.40;;;8.30;83.70;;;;;;20917573;28;20255;-64
2022/01/23 13:40:39;;;;;;;4.00;2.00;;;8.30;84.10;;;;;;20918731;28;20207;-64
2022/01/23 14:11:28;;;;;;;2.10;1.50;;;8.30;85.80;;;;;;20917062;28;20325;-66
2022/01/23 14:21:43;;;;;;;2.20;1.37;;;8.10;85.00;;;;;;20916292;28;20259;-66
2022/01/23 14:31:44;;;;;;;2.17;1.80;;;8.10;85.60;;;;;;20916287;28;20250;-66
2022/01/23 14:41:46;;;;;;;4.57;3.00;;;8.20;86.40;;;;;;20916067;28;20215;-69
2022/01/23 14:51:49;;;;;;;2.93;2.17;;;8.30;85.40;;;;;;20914511;28;20326;-63
2022/01/23 15:01:50;;;;;;;3.70;2.20;;;8.30;85.20;;;;;;20914833;28;20202;-62
2022/01/23 15:11:53;;;;;;;2.20;1.43;;;8.40;85.90;;;;;;20914275;28;20243;-73
2022/01/23 15:21:55;;;;;;;6.87;3.50;;;8.20;84.40;;;;;;20916294;28;20261;-71
2022/01/23 15:31:57;;;;;;;3.63;2.30;;;8.30;85.00;;;;;;20837789;28;20243;-75
2022/01/23 15:41:59;;;;;;;12.33;2.80;;;8.30;84.60;;;;;;20832711;28;20263;-70
2022/01/23 15:52:02;;;;;;;4.43;2.57;;;8.30;83.70;;;;;;20831436;28;20700;-62
2022/01/23 16:02:07;;;;;;;2.37;1.83;;;8.20;83.50;;;;;;20867843;28;20256;-65
2022/01/23 16:12:10;;;;;;;4.57;2.50;;;8.10;83.70;;;;;;20907737;28;20323;-62
2022/01/23 16:22:32;;;;;;;2.57;2.00;;;8.10;83.70;;;;;;20910952;28;20241;-70
2022/01/23 16:32:34;;;;;;;4.67;3.10;;;8.00;83.40;;;;;;20893986;28;20250;-63
2022/01/23 16:42:36;;;;;;;4.50;2.10;;;8.00;84.20;;;;;;20923200;28;20256;-61
2022/01/23 16:52:38;;;;;;;15.43;7.17;;;8.00;84.20;;;;;;20923288;28;20243;-61
2022/01/23 17:02:39;;;;;;;4.33;3.10;;;8.00;84.30;;;;;;20892564;28;20208;-63
2022/01/23 17:12:42;;;;;;;10.03;5.40;;;7.90;85.00;;;;;;20836821;28;20241;-63
2022/01/23 17:29:51;;;;;;;7.53;4.23;;;7.80;86.00;;;;;;20983927;28;20560;-64
2022/01/23 17:39:53;;;;;;;10.67;5.60;;;7.70;86.70;;;;;;20983472;28;20615;-65
2022/01/23 17:50:04;;;;;;;13.50;8.13;;;7.60;87.90;;;;;;20980635;28;20215;-67
2022/01/23 18:04:50;;;;;;;9.63;5.47;;;7.50;88.60;;;;;;21066964;27;20592;-63
2022/01/23 18:14:51;;;;;;;6.83;4.57;;;7.60;89.60;;;;;;21062309;28;20214;-68
2022/01/23 18:24:53;;;;;;;9.93;5.63;;;7.60;90.00;;;;;;21050880;28;20204;-67
2022/01/23 18:34:55;;;;;;;5.27;3.50;;;7.70;90.10;;;;;;21014732;28;20253;-68
2022/01/23 18:44:57;;;;;;;5.03;3.50;;;7.70;90.10;;;;;;21041045;28;20208;-64
2022/01/23 18:55:06;;;;;;;3.33;2.30;;;7.70;90.10;;;;;;21063126;28;20223;-67
2022/01/23 19:05:23;;;;;;;4.23;2.83;;;;;;;;;;21059367;28;20474;-69
2022/01/23 19:15:25;;;;;;;7.17;3.77;;;7.80;90.30;;;;;;20963782;28;20289;-66
2022/01/23 19:25:28;;;;;;;6.47;2.90;;;7.80;90.40;;;;;;20971613;28;20282;-64
2022/01/23 19:35:35;;;;;;;4.23;2.93;;;7.80;90.50;;;;;;20922701;28;20281;-64
2022/01/23 19:45:37;;;;;;;5.03;3.80;;;7.80;90.50;;;;;;20921432;28;20201;-64
2022/01/23 19:55:39;;;;;;;6.57;3.93;;;7.70;90.60;;;;;;20924327;28;20238;-63
2022/01/23 20:05:44;;;;;;;5.53;3.73;;;7.80;90.70;;;;;;20958425;28;20203;-64
2022/01/23 20:15:46;;;;;;;7.20;3.77;;;7.70;90.70;;;;;;20934397;28;20239;-71
2022/01/23 20:25:52;;;;;;;6.03;4.17;;;7.80;90.70;;;;;;20917993;28;20205;-61
2022/01/23 20:35:55;;;;;;;3.83;3.17;;;7.70;90.70;;;;;;20979888;28;20732;-62
2022/01/23 20:45:57;;;;;;;3.50;2.57;;;7.70;90.60;;;;;;21021230;28;20261;-65
2022/01/23 20:55:59;;;;;;;2.70;2.10;;;7.70;90.40;;;;;;21061958;28;20252;-62
2022/01/23 21:06:00;;;;;;;3.00;2.50;;;7.70;90.60;;;;;;20959718;28;20432;-69
2022/01/23 21:47:10;;;;;;;3.10;1.70;;;7.60;88.70;;;;;;20908973;28;20297;-63
2022/01/23 21:57:12;;;;;;;2.90;1.70;;;7.70;88.40;;;;;;20909952;28;20782;-62
2022/01/23 22:07:14;;;;;;;2.97;1.83;;;7.70;88.40;;;;;;20950657;28;20202;-64
2022/01/23 22:17:16;;;;;;;3.47;2.53;;;7.60;88.20;;;;;;20991960;28;20265;-63
2022/01/23 22:27:34;;;;;;;1.80;1.50;;;7.70;88.40;;;;;;20990991;28;20209;-63
2022/01/23 22:37:42;;;;;;;1.53;1.40;;;7.60;88.20;;;;;;20988018;28;20279;-64
2022/01/23 22:47:45;;;;;;;1.80;1.40;;;7.60;88.40;;;;;;20962916;28;20273;-64
2022/01/23 22:57:47;;;;;;;1.40;1.30;;;7.70;88.30;;;;;;20997069;28;20712;-63
2022/01/23 23:07:48;;;;;;;4.97;2.10;;;7.70;88.20;;;;;;21007574;28;20297;-63
2022/01/23 23:17:50;;;;;;;1.83;1.50;;;7.70;88.40;;;;;;20974147;28;20317;-62
2022/01/23 23:27:52;;;;;;;2.20;1.80;;;7.70;88.30;;;;;;20920619;28;20210;-63
2022/01/23 23:37:54;;;;;;;5.23;2.00;;;7.60;88.30;;;;;;20922469;28;20705;-63
2022/01/23 23:47:56;;;;;;;1.93;1.67;;;7.60;88.40;;;;;;20921488;28;20258;-63
2022/01/23 23:57:58;;;;;;;1.60;1.50;;;7.60;88.20;;;;;;20921461;28;20247;-66
